• Join FlightAware (Why Join?)
  • Login
  • US Flag 
05:21PM EDT


 

Airport Tracker/Info


-or-


 

Live Flight TrackerFlight Track Log ✈ PDT4226 ✈ 14-Oct-2013 ✈ KBGM - KPHL

Flight Track Log - Related Links

Times and Time Zones

All times are in EDT time to prevent confusion due to time zone crossing. See the PDT4226 flight status page for this flight to view local times or setup timezone preferences in your user account.

Time Position Orientation Groundspeed Altitude Reporting Facility
EDT Latitude Longitude Course Direction KTS MPH feet Rate Location/Type
02:24PM 41.9875 -75.9074 180° South  Level Estimated
02:25PM 41.9119 -75.9156 185° South  Level FlightAware Approximate
02:26PM 41.8385 -75.8906 154° Southeast  Level Estimated
02:27PM 41.7650 -75.8656 160° South  Level Estimated
02:28PM 41.6915 -75.8406 159° South  Level Estimated
02:29PM 41.6167 -75.8247 171° South  Level FlightAware Approximate
02:30PM 41.5433 -75.7995 161° South  Level Estimated
02:31PM 41.4710 -75.7690 162° South  Level FlightAware Approximate
02:32PM 41.3987 -75.7386 162° South  Level FlightAware Approximate
02:33PM 41.3252 -75.7141 162° South  Level Estimated
02:34PM 41.2535 -75.6815 161° South  Level FlightAware Approximate
02:35PM 41.1817 -75.6489 161° South  Level FlightAware Approximate
02:36PM 41.1100 -75.6164 161° South  Level FlightAware Approximate
02:37PM 41.0362 -75.5936 163° South  Level Estimated
02:38PM 40.9644 -75.5612 161° South  Level FlightAware Approximate
02:39PM 40.8927 -75.5289 161° South  Level FlightAware Approximate
02:40PM 40.8209 -75.4967 161° South  Level FlightAware Approximate
02:41PM 40.7467 -75.4764 190° South  Level Estimated
02:42PM 40.6711 -75.4837 184° South  Level FlightAware Approximate
02:43PM 40.5955 -75.4909 184° South  Level FlightAware Approximate
02:44PM 40.5223 -75.4653 187° South  Level Estimated
02:45PM 40.4490 -75.4398 190° South  Level Estimated
02:46PM 40.3792 -75.4785 203° Southwest  Level FlightAware Approximate
02:47PM 40.3078 -75.4449 180° South  Level Estimated
02:48PM 40.2365 -75.4113 143° Southeast  Level Estimated
02:48PM 40.5667 -75.5500 150° Southeast 266 306 5,800  Level Philadelphia TRACON
02:49PM 40.1652 -75.3777 143° Southeast  Level Estimated
02:49PM 40.5000 -75.5500 180° South 271 312 5,000  Level Philadelphia TRACON
02:50PM 40.0938 -75.3443 143° Southeast  Level Estimated
02:50PM 40.4167 -75.5333 171° South 243 280 5,000  Level Philadelphia TRACON
02:51PM 40.0225 -75.3109 159° South  Level Estimated
02:51PM 40.3667 -75.5167 166° South 238 274 5,000  Level Philadelphia TRACON
02:52PM 39.9511 -75.2776 150° Southeast  Level Estimated
02:52PM 40.3000 -75.5000 169° South 237 273 4,800  Level Philadelphia TRACON
02:53PM 39.8797 -75.2443 150° Southeast  Level Estimated
02:53PM 40.2333 -75.4667 159° South 257 296 4,000  Level Philadelphia TRACON
02:54PM 40.1667 -75.4333 159° South 230 265 4,000  Level Philadelphia TRACON
02:55PM 40.1167 -75.4167 166° South 210 242 4,000  Level Philadelphia TRACON
02:56PM 40.0500 -75.4000 169° South 211 243 4,000  Level Philadelphia TRACON
02:57PM 39.9833 -75.3833 169° South 210 242 4,000  Level Philadelphia TRACON
02:58PM 39.9333 -75.3667 166° South 211 243 4,000  Level Philadelphia TRACON
02:59PM 39.8833 -75.3500 166° South 210 242 4,000  Level Philadelphia TRACON
03:00PM 39.8167 -75.3333 169° South 211 243 4,000 -120 Level Philadelphia TRACON
03:01PM 39.7667 -75.3000 153° Southeast 209 241 3,800 -900 Descending Philadelphia TRACON
03:02PM 39.7667 -75.2500 90° East 184 212 2,400 -960 Descending Philadelphia TRACON
03:03PM 39.7833 -75.2000 67° East 177 204 2,000 -480 Descending Philadelphia TRACON
03:04PM 39.8167 -75.2000 360° North 151 174 1,500 -840 Descending Philadelphia TRACON
03:05PM 39.8667 -75.2167 346° North 134 154 400 -1,020 Descending Philadelphia TRACON